sensor_id;sensor_type;location;lat;lon;timestamp;pressure;altitude;pressure_sealevel;temperature;humidity
25560;BME280;13450;49.374;8.584;2023-04-27T00:02:08;100665.72;;;6.15;100.00
25560;BME280;13450;49.374;8.584;2023-04-27T00:04:33;100662.78;;;6.19;100.00
25560;BME280;13450;49.374;8.584;2023-04-27T00:06:58;100653.88;;;6.10;100.00
25560;BME280;13450;49.374;8.584;2023-04-27T00:09:24;100658.34;;;6.09;100.00
25560;BME280;13450;49.374;8.584;2023-04-27T00:11:51;100649.41;;;6.00;100.00
25560;BME280;13450;49.374;8.584;2023-04-27T00:14:17;100650.84;;;5.95;100.00
25560;BME280;13450;49.374;8.584;2023-04-27T00:16:42;100646.91;;;5.99;100.00
25560;BME280;13450;49.374;8.584;2023-04-27T00:19:07;100653.97;;;5.90;100.00
25560;BME280;13450;49.374;8.584;2023-04-27T00:21:33;100647.81;;;5.89;100.00
25560;BME280;13450;49.374;8.584;2023-04-27T00:23:58;100649.19;;;5.94;100.00
25560;BME280;13450;49.374;8.584;2023-04-27T00:26:24;100644.41;;;5.97;100.00
25560;BME280;13450;49.374;8.584;2023-04-27T00:28:50;100651.41;;;5.98;100.00
25560;BME280;13450;49.374;8.584;2023-04-27T00:31:16;100649.47;;;5.91;100.00
25560;BME280;13450;49.374;8.584;2023-04-27T00:33:44;100655.69;;;5.81;100.00
25560;BME280;13450;49.374;8.584;2023-04-27T00:36:10;100650.69;;;5.78;100.00
25560;BME280;13450;49.374;8.584;2023-04-27T00:38:36;100637.31;;;5.70;100.00
25560;BME280;13450;49.374;8.584;2023-04-27T00:41:04;100644.31;;;5.61;100.00
25560;BME280;13450;49.374;8.584;2023-04-27T00:43:39;100639.00;;;5.61;100.00
25560;BME280;13450;49.374;8.584;2023-04-27T00:46:06;100640.75;;;5.52;100.00
25560;BME280;13450;49.374;8.584;2023-04-27T00:48:32;100645.34;;;5.50;100.00
25560;BME280;13450;49.374;8.584;2023-04-27T00:50:58;100642.31;;;5.45;100.00
25560;BME280;13450;49.374;8.584;2023-04-27T00:53:24;100646.81;;;5.34;100.00
25560;BME280;13450;49.374;8.584;2023-04-27T00:55:49;100640.97;;;5.31;100.00
25560;BME280;13450;49.374;8.584;2023-04-27T00:58:17;100645.31;;;5.22;100.00
25560;BME280;13450;49.374;8.584;2023-04-27T01:00:44;100655.41;;;5.18;100.00
25560;BME280;13450;49.374;8.584;2023-04-27T01:03:10;100643.69;;;5.11;100.00
25560;BME280;13450;49.374;8.584;2023-04-27T01:05:36;100652.22;;;5.05;100.00
25560;BME280;13450;49.374;8.584;2023-04-27T01:08:02;100649.59;;;4.95;100.00
25560;BME280;13450;49.374;8.584;2023-04-27T01:10:27;100649.88;;;4.92;100.00
25560;BME280;13450;49.374;8.584;2023-04-27T01:12:53;100661.59;;;4.89;100.00
25560;BME280;13450;49.374;8.584;2023-04-27T01:15:18;100662.03;;;4.84;100.00
25560;BME280;13450;49.374;8.584;2023-04-27T01:17:45;100657.41;;;4.87;100.00
25560;BME280;13450;49.374;8.584;2023-04-27T01:20:12;100658.25;;;4.77;100.00
25560;BME280;13450;49.374;8.584;2023-04-27T01:22:39;100652.16;;;4.77;100.00
25560;BME280;13450;49.374;8.584;2023-04-27T01:25:07;100650.19;;;4.69;100.00
25560;BME280;13450;49.374;8.584;2023-04-27T01:27:33;100651.88;;;4.60;100.00
25560;BME280;13450;49.374;8.584;2023-04-27T01:29:58;100657.03;;;4.62;100.00
25560;BME280;13450;49.374;8.584;2023-04-27T01:32:24;100644.63;;;4.52;100.00
25560;BME280;13450;49.374;8.584;2023-04-27T01:34:49;100653.84;;;4.48;100.00
25560;BME280;13450;49.374;8.584;2023-04-27T01:37:15;100656.75;;;4.45;100.00
25560;BME280;13450;49.374;8.584;2023-04-27T01:39:41;100651.44;;;4.45;100.00
25560;BME280;13450;49.374;8.584;2023-04-27T01:42:06;100659.41;;;4.45;100.00
25560;BME280;13450;49.374;8.584;2023-04-27T01:44:31;100655.09;;;4.44;100.00
25560;BME280;13450;49.374;8.584;2023-04-27T01:46:56;100643.91;;;4.50;100.00
25560;BME280;13450;49.374;8.584;2023-04-27T01:49:23;100652.16;;;4.47;100.00
25560;BME280;13450;49.374;8.584;2023-04-27T01:51:48;100647.28;;;4.52;100.00
25560;BME280;13450;49.374;8.584;2023-04-27T01:54:14;100646.88;;;4.47;100.00
25560;BME280;13450;49.374;8.584;2023-04-27T01:56:47;100643.50;;;4.55;100.00
25560;BME280;13450;49.374;8.584;2023-04-27T01:59:12;100645.88;;;4.48;100.00
25560;BME280;13450;49.374;8.584;2023-04-27T02:01:38;100642.97;;;4.51;100.00
25560;BME280;13450;49.374;8.584;2023-04-27T02:04:03;100649.94;;;4.52;100.00
25560;BME280;13450;49.374;8.584;2023-04-27T02:06:29;100642.38;;;4.57;100.00
25560;BME280;13450;49.374;8.584;2023-04-27T02:08:55;100657.19;;;4.60;100.00
25560;BME280;13450;49.374;8.584;2023-04-27T02:11:26;100658.13;;;4.69;100.00
25560;BME280;13450;49.374;8.584;2023-04-27T02:13:51;100654.94;;;4.75;100.00
25560;BME280;13450;49.374;8.584;2023-04-27T02:16:16;100659.38;;;4.75;100.00
25560;BME280;13450;49.374;8.584;2023-04-27T02:18:42;100662.47;;;4.70;100.00
25560;BME280;13450;49.374;8.584;2023-04-27T02:21:08;100655.91;;;4.74;100.00
25560;BME280;13450;49.374;8.584;2023-04-27T02:23:34;100660.91;;;4.77;100.00
25560;BME280;13450;49.374;8.584;2023-04-27T02:26:00;100663.03;;;4.83;100.00
25560;BME280;13450;49.374;8.584;2023-04-27T02:28:26;100666.94;;;4.79;100.00
25560;BME280;13450;49.374;8.584;2023-04-27T02:33:54;100662.75;;;4.77;100.00
25560;BME280;13450;49.374;8.584;2023-04-27T02:40:01;100670.97;;;4.83;100.00
25560;BME280;13450;49.374;8.584;2023-04-27T02:42:29;100674.16;;;4.87;100.00
25560;BME280;13450;49.374;8.584;2023-04-27T02:44:54;100669.84;;;4.86;100.00
25560;BME280;13450;49.374;8.584;2023-04-27T02:50:23;100678.09;;;4.93;100.00
25560;BME280;13450;49.374;8.584;2023-04-27T02:56:10;100679.06;;;4.92;100.00
25560;BME280;13450;49.374;8.584;2023-04-27T02:58:35;100685.47;;;4.99;100.00
25560;BME280;13450;49.374;8.584;2023-04-27T03:01:01;100677.63;;;5.07;100.00
25560;BME280;13450;49.374;8.584;2023-04-27T03:03:26;100683.06;;;5.16;100.00
25560;BME280;13450;49.374;8.584;2023-04-27T03:05:52;100679.41;;;5.17;100.00
25560;BME280;13450;49.374;8.584;2023-04-27T03:08:17;100666.28;;;5.25;100.00
25560;BME280;13450;49.374;8.584;2023-04-27T03:14:06;100670.31;;;5.29;100.00
25560;BME280;13450;49.374;8.584;2023-04-27T03:16:32;100666.66;;;5.30;100.00
25560;BME280;13450;49.374;8.584;2023-04-27T03:18:57;100669.31;;;5.30;100.00
25560;BME280;13450;49.374;8.584;2023-04-27T03:21:22;100674.34;;;5.33;100.00
25560;BME280;13450;49.374;8.584;2023-04-27T03:23:49;100681.31;;;5.34;100.00
25560;BME280;13450;49.374;8.584;2023-04-27T03:26:16;100681.31;;;5.34;100.00
25560;BME280;13450;49.374;8.584;2023-04-27T03:28:41;100680.19;;;5.37;100.00
25560;BME280;13450;49.374;8.584;2023-04-27T03:31:08;100676.88;;;5.35;100.00
25560;BME280;13450;49.374;8.584;2023-04-27T03:33:36;100690.28;;;5.33;100.00
25560;BME280;13450;49.374;8.584;2023-04-27T03:36:03;100689.44;;;5.33;100.00
25560;BME280;13450;49.374;8.584;2023-04-27T03:38:29;100684.13;;;5.33;100.00
25560;BME280;13450;49.374;8.584;2023-04-27T03:40:54;100688.31;;;5.35;100.00
25560;BME280;13450;49.374;8.584;2023-04-27T03:43:20;100680.88;;;5.39;100.00
25560;BME280;13450;49.374;8.584;2023-04-27T03:45:46;100664.81;;;5.41;100.00
25560;BME280;13450;49.374;8.584;2023-04-27T03:48:14;100670.13;;;5.41;100.00
25560;BME280;13450;49.374;8.584;2023-04-27T03:50:42;100665.78;;;5.40;100.00
25560;BME280;13450;49.374;8.584;2023-04-27T03:53:08;100669.72;;;5.35;100.00
25560;BME280;13450;49.374;8.584;2023-04-27T03:55:38;100676.56;;;5.38;100.00
25560;BME280;13450;49.374;8.584;2023-04-27T03:58:03;100680.72;;;5.41;100.00
25560;BME280;13450;49.374;8.584;2023-04-27T04:00:28;100678.47;;;5.46;100.00
25560;BME280;13450;49.374;8.584;2023-04-27T04:02:54;100672.47;;;5.54;100.00
25560;BME280;13450;49.374;8.584;2023-04-27T04:05:19;100673.66;;;5.59;100.00
25560;BME280;13450;49.374;8.584;2023-04-27T04:07:46;100671.44;;;5.65;100.00
25560;BME280;13450;49.374;8.584;2023-04-27T04:10:11;100670.31;;;5.67;100.00
25560;BME280;13450;49.374;8.584;2023-04-27T04:12:36;100676.44;;;5.68;100.00
25560;BME280;13450;49.374;8.584;2023-04-27T04:15:02;100678.81;;;5.71;100.00
25560;BME280;13450;49.374;8.584;2023-04-27T04:17:28;100681.75;;;5.68;100.00
25560;BME280;13450;49.374;8.584;2023-04-27T04:19:53;100670.97;;;5.69;100.00
25560;BME280;13450;49.374;8.584;2023-04-27T04:22:18;100675.88;;;5.74;100.00
25560;BME280;13450;49.374;8.584;2023-04-27T04:24:44;100672.75;;;5.79;100.00
25560;BME280;13450;49.374;8.584;2023-04-27T04:27:09;100678.31;;;5.85;100.00
25560;BME280;13450;49.374;8.584;2023-04-27T04:29:38;100683.34;;;5.88;100.00
25560;BME280;13450;49.374;8.584;2023-04-27T04:32:07;100684.19;;;5.89;100.00
25560;BME280;13450;49.374;8.584;2023-04-27T04:34:34;100688.34;;;5.92;100.00
25560;BME280;13450;49.374;8.584;2023-04-27T04:37:00;100685.69;;;5.92;100.00
25560;BME280;13450;49.374;8.584;2023-04-27T04:39:32;100685.47;;;5.85;100.00
25560;BME280;13450;49.374;8.584;2023-04-27T04:42:00;100685.59;;;5.83;100.00
25560;BME280;13450;49.374;8.584;2023-04-27T04:44:25;100692.84;;;5.81;100.00
25560;BME280;13450;49.374;8.584;2023-04-27T04:46:51;100698.19;;;5.81;100.00
25560;BME280;13450;49.374;8.584;2023-04-27T04:49:18;100696.66;;;5.79;100.00
25560;BME280;13450;49.374;8.584;2023-04-27T04:51:44;100700.97;;;5.80;100.00
25560;BME280;13450;49.374;8.584;2023-04-27T04:54:09;100692.47;;;5.76;100.00
25560;BME280;13450;49.374;8.584;2023-04-27T04:56:35;100696.50;;;5.80;100.00
25560;BME280;13450;49.374;8.584;2023-04-27T04:59:01;100696.91;;;5.85;100.00
25560;BME280;13450;49.374;8.584;2023-04-27T05:01:26;100702.78;;;5.89;100.00
25560;BME280;13450;49.374;8.584;2023-04-27T05:03:52;100705.50;;;5.97;100.00
25560;BME280;13450;49.374;8.584;2023-04-27T05:06:19;100698.38;;;6.08;100.00
25560;BME280;13450;49.374;8.584;2023-04-27T05:08:45;100701.63;;;6.20;100.00
25560;BME280;13450;49.374;8.584;2023-04-27T05:11:10;100703.84;;;6.24;100.00
25560;BME280;13450;49.374;8.584;2023-04-27T05:13:35;100700.13;;;6.35;100.00
25560;BME280;13450;49.374;8.584;2023-04-27T05:16:05;100697.94;;;6.49;100.00
25560;BME280;13450;49.374;8.584;2023-04-27T05:18:34;100703.84;;;6.61;100.00
25560;BME280;13450;49.374;8.584;2023-04-27T05:21:00;100706.91;;;6.66;100.00
25560;BME280;13450;49.374;8.584;2023-04-27T05:23:25;100703.47;;;6.74;100.00
25560;BME280;13450;49.374;8.584;2023-04-27T05:25:51;100717.44;;;6.76;100.00
25560;BME280;13450;49.374;8.584;2023-04-27T05:28:17;100713.81;;;6.77;100.00
25560;BME280;13450;49.374;8.584;2023-04-27T05:30:42;100717.88;;;6.89;100.00
25560;BME280;13450;49.374;8.584;2023-04-27T05:33:08;100717.81;;;6.99;100.00
25560;BME280;13450;49.374;8.584;2023-04-27T05:35:33;100722.69;;;7.04;100.00
25560;BME280;13450;49.374;8.584;2023-04-27T05:37:59;100721.34;;;7.08;100.00
25560;BME280;13450;49.374;8.584;2023-04-27T05:40:24;100719.31;;;7.20;100.00
25560;BME280;13450;49.374;8.584;2023-04-27T05:42:50;100722.47;;;7.24;100.00
25560;BME280;13450;49.374;8.584;2023-04-27T05:45:18;100728.88;;;7.31;100.00
25560;BME280;13450;49.374;8.584;2023-04-27T05:47:43;100729.44;;;7.43;100.00
25560;BME280;13450;49.374;8.584;2023-04-27T05:50:09;100718.28;;;7.48;100.00
25560;BME280;13450;49.374;8.584;2023-04-27T05:52:35;100724.50;;;7.56;100.00
25560;BME280;13450;49.374;8.584;2023-04-27T05:55:00;100735.00;;;7.58;100.00
25560;BME280;13450;49.374;8.584;2023-04-27T05:57:26;100733.38;;;7.65;100.00
25560;BME280;13450;49.374;8.584;2023-04-27T05:59:52;100726.72;;;7.69;100.00
25560;BME280;13450;49.374;8.584;2023-04-27T06:02:18;100735.75;;;7.77;100.00
25560;BME280;13450;49.374;8.584;2023-04-27T06:04:44;100738.28;;;7.87;100.00
25560;BME280;13450;49.374;8.584;2023-04-27T06:07:11;100738.22;;;8.05;100.00
25560;BME280;13450;49.374;8.584;2023-04-27T06:09:37;100741.59;;;8.23;100.00
25560;BME280;13450;49.374;8.584;2023-04-27T06:12:04;100739.13;;;8.38;100.00
25560;BME280;13450;49.374;8.584;2023-04-27T06:14:34;100736.16;;;8.50;100.00
25560;BME280;13450;49.374;8.584;2023-04-27T06:17:02;100736.66;;;8.45;100.00
25560;BME280;13450;49.374;8.584;2023-04-27T06:19:28;100737.28;;;8.39;100.00
25560;BME280;13450;49.374;8.584;2023-04-27T06:21:54;100743.00;;;8.44;100.00
25560;BME280;13450;49.374;8.584;2023-04-27T06:24:20;100750.00;;;8.45;100.00
25560;BME280;13450;49.374;8.584;2023-04-27T06:26:48;100746.53;;;8.61;100.00
25560;BME280;13450;49.374;8.584;2023-04-27T06:29:15;100754.41;;;8.71;100.00
25560;BME280;13450;49.374;8.584;2023-04-27T06:31:43;100746.38;;;8.80;100.00
25560;BME280;13450;49.374;8.584;2023-04-27T06:34:08;100755.72;;;8.92;100.00
25560;BME280;13450;49.374;8.584;2023-04-27T06:36:36;100763.25;;;8.97;100.00
25560;BME280;13450;49.374;8.584;2023-04-27T06:39:04;100765.56;;;9.08;100.00
25560;BME280;13450;49.374;8.584;2023-04-27T06:41:30;100774.59;;;9.15;100.00
25560;BME280;13450;49.374;8.584;2023-04-27T06:44:00;100770.06;;;9.24;100.00
25560;BME280;13450;49.374;8.584;2023-04-27T06:46:26;100764.75;;;9.08;100.00
25560;BME280;13450;49.374;8.584;2023-04-27T06:48:51;100764.41;;;9.11;100.00
25560;BME280;13450;49.374;8.584;2023-04-27T06:51:17;100773.91;;;9.30;100.00
25560;BME280;13450;49.374;8.584;2023-04-27T06:53:42;100771.06;;;9.48;100.00
25560;BME280;13450;49.374;8.584;2023-04-27T06:56:10;100769.69;;;9.61;100.00
25560;BME280;13450;49.374;8.584;2023-04-27T06:58:36;100769.97;;;9.74;100.00
25560;BME280;13450;49.374;8.584;2023-04-27T07:01:02;100769.28;;;9.89;100.00
25560;BME280;13450;49.374;8.584;2023-04-27T07:03:28;100773.91;;;10.03;100.00
25560;BME280;13450;49.374;8.584;2023-04-27T07:05:54;100769.19;;;10.14;100.00
25560;BME280;13450;49.374;8.584;2023-04-27T07:08:23;100770.78;;;10.31;100.00
25560;BME280;13450;49.374;8.584;2023-04-27T07:10:48;100776.88;;;10.49;100.00
25560;BME280;13450;49.374;8.584;2023-04-27T07:13:14;100770.28;;;10.59;100.00
25560;BME280;13450;49.374;8.584;2023-04-27T07:15:40;100770.38;;;10.75;100.00
25560;BME280;13450;49.374;8.584;2023-04-27T07:18:07;100777.50;;;10.82;98.16
25560;BME280;13450;49.374;8.584;2023-04-27T07:20:32;100772.50;;;11.03;100.00
25560;BME280;13450;49.374;8.584;2023-04-27T07:22:57;100767.63;;;11.06;100.00
25560;BME280;13450;49.374;8.584;2023-04-27T07:25:23;100776.69;;;11.20;100.00
25560;BME280;13450;49.374;8.584;2023-04-27T07:27:48;100779.59;;;11.34;98.54
25560;BME280;13450;49.374;8.584;2023-04-27T07:30:13;100781.28;;;11.50;94.65
25560;BME280;13450;49.374;8.584;2023-04-27T07:32:40;100777.88;;;11.56;90.62
25560;BME280;13450;49.374;8.584;2023-04-27T07:35:08;100769.75;;;11.64;89.03
25560;BME280;13450;49.374;8.584;2023-04-27T07:37:35;100777.34;;;11.76;86.09
25560;BME280;13450;49.374;8.584;2023-04-27T07:40:03;100774.03;;;11.74;85.92
25560;BME280;13450;49.374;8.584;2023-04-27T07:42:41;100772.06;;;11.83;85.54
25560;BME280;13450;49.374;8.584;2023-04-27T07:45:10;100776.97;;;11.94;85.56
25560;BME280;13450;49.374;8.584;2023-04-27T07:47:38;100771.16;;;11.75;83.88
25560;BME280;13450;49.374;8.584;2023-04-27T07:50:06;100767.16;;;11.86;82.73
25560;BME280;13450;49.374;8.584;2023-04-27T07:52:32;100771.69;;;11.86;82.82
25560;BME280;13450;49.374;8.584;2023-04-27T07:54:58;100775.50;;;11.92;78.70
25560;BME280;13450;49.374;8.584;2023-04-27T07:57:23;100775.09;;;11.95;80.59
25560;BME280;13450;49.374;8.584;2023-04-27T07:59:48;100772.72;;;11.85;82.53
25560;BME280;13450;49.374;8.584;2023-04-27T08:02:15;100763.56;;;11.94;82.92
25560;BME280;13450;49.374;8.584;2023-04-27T08:04:40;100770.41;;;11.97;83.61
25560;BME280;13450;49.374;8.584;2023-04-27T08:07:06;100769.28;;;11.91;86.12
25560;BME280;13450;49.374;8.584;2023-04-27T08:09:31;100762.19;;;11.83;85.90
25560;BME280;13450;49.374;8.584;2023-04-27T08:11:57;100763.13;;;11.75;89.84
25560;BME280;13450;49.374;8.584;2023-04-27T08:14:22;100765.03;;;11.82;87.73
25560;BME280;13450;49.374;8.584;2023-04-27T08:16:48;100760.31;;;11.84;87.95
25560;BME280;13450;49.374;8.584;2023-04-27T08:19:16;100759.22;;;11.78;87.15
25560;BME280;13450;49.374;8.584;2023-04-27T08:21:41;100765.13;;;11.88;87.10
25560;BME280;13450;49.374;8.584;2023-04-27T08:24:07;100766.25;;;11.94;85.79
25560;BME280;13450;49.374;8.584;2023-04-27T08:26:32;100762.00;;;11.85;83.91
25560;BME280;13450;49.374;8.584;2023-04-27T08:28:59;100761.97;;;12.00;81.77
25560;BME280;13450;49.374;8.584;2023-04-27T08:31:25;100753.38;;;12.04;78.54
25560;BME280;13450;49.374;8.584;2023-04-27T08:33:52;100753.84;;;12.08;77.10
25560;BME280;13450;49.374;8.584;2023-04-27T08:36:19;100759.19;;;12.23;73.75
25560;BME280;13450;49.374;8.584;2023-04-27T08:38:45;100749.81;;;12.34;70.86
25560;BME280;13450;49.374;8.584;2023-04-27T08:41:19;100753.56;;;12.55;71.68
25560;BME280;13450;49.374;8.584;2023-04-27T08:43:47;100747.94;;;12.72;64.63
25560;BME280;13450;49.374;8.584;2023-04-27T08:49:06;100749.16;;;13.19;59.56
25560;BME280;13450;49.374;8.584;2023-04-27T08:51:34;100747.06;;;13.15;59.83
25560;BME280;13450;49.374;8.584;2023-04-27T08:54:00;100750.13;;;13.33;60.10
25560;BME280;13450;49.374;8.584;2023-04-27T08:56:27;100741.75;;;13.50;60.87
25560;BME280;13450;49.374;8.584;2023-04-27T08:58:55;100756.94;;;13.65;64.51
25560;BME280;13450;49.374;8.584;2023-04-27T09:01:22;100744.19;;;13.73;61.80
25560;BME280;13450;49.374;8.584;2023-04-27T09:03:48;100743.97;;;13.75;60.46
25560;BME280;13450;49.374;8.584;2023-04-27T09:06:16;100743.22;;;13.53;60.03
25560;BME280;13450;49.374;8.584;2023-04-27T09:11:15;100751.16;;;13.68;60.17
25560;BME280;13450;49.374;8.584;2023-04-27T09:13:44;100747.13;;;13.85;59.78
25560;BME280;13450;49.374;8.584;2023-04-27T09:16:12;100746.16;;;14.00;58.58
25560;BME280;13450;49.374;8.584;2023-04-27T09:18:41;100748.09;;;14.13;58.93
25560;BME280;13450;49.374;8.584;2023-04-27T09:21:07;100749.94;;;14.12;56.79
25560;BME280;13450;49.374;8.584;2023-04-27T09:23:36;100748.69;;;14.15;55.75
25560;BME280;13450;49.374;8.584;2023-04-27T09:26:04;100746.16;;;14.00;55.59
25560;BME280;13450;49.374;8.584;2023-04-27T09:30:51;100740.53;;;14.50;55.53
25560;BME280;13450;49.374;8.584;2023-04-27T09:33:24;100740.72;;;14.42;54.50
25560;BME280;13450;49.374;8.584;2023-04-27T09:35:51;100735.34;;;14.56;54.12
25560;BME280;13450;49.374;8.584;2023-04-27T09:38:21;100729.75;;;14.50;54.82
25560;BME280;13450;49.374;8.584;2023-04-27T09:40:47;100725.44;;;14.63;55.29
25560;BME280;13450;49.374;8.584;2023-04-27T09:43:15;100721.91;;;14.62;54.38
25560;BME280;13450;49.374;8.584;2023-04-27T09:45:44;100719.22;;;14.69;54.96
25560;BME280;13450;49.374;8.584;2023-04-27T09:48:12;100723.41;;;14.92;55.59
25560;BME280;13450;49.374;8.584;2023-04-27T09:50:44;100716.34;;;15.04;56.74
25560;BME280;13450;49.374;8.584;2023-04-27T09:53:13;100725.00;;;15.34;56.34
25560;BME280;13450;49.374;8.584;2023-04-27T09:55:43;100730.19;;;15.49;55.89
25560;BME280;13450;49.374;8.584;2023-04-27T10:04:35;100711.38;;;16.40;53.21
25560;BME280;13450;49.374;8.584;2023-04-27T10:07:09;100718.72;;;16.58;55.08
25560;BME280;13450;49.374;8.584;2023-04-27T10:09:48;100710.88;;;16.50;51.28
25560;BME280;13450;49.374;8.584;2023-04-27T10:12:33;100714.44;;;16.76;51.85
25560;BME280;13450;49.374;8.584;2023-04-27T10:15:12;100721.16;;;17.18;48.48
25560;BME280;13450;49.374;8.584;2023-04-27T10:17:37;100711.41;;;17.17;46.48
25560;BME280;13450;49.374;8.584;2023-04-27T10:20:05;100709.94;;;17.58;45.27
25560;BME280;13450;49.374;8.584;2023-04-27T10:22:41;100709.38;;;18.06;46.23
25560;BME280;13450;49.374;8.584;2023-04-27T10:25:19;100708.72;;;18.10;45.47
25560;BME280;13450;49.374;8.584;2023-04-27T10:27:57;100708.66;;;18.72;44.70
25560;BME280;13450;49.374;8.584;2023-04-27T10:30:25;100704.94;;;19.08;43.72
25560;BME280;13450;49.374;8.584;2023-04-27T10:32:56;100703.16;;;19.38;39.29
25560;BME280;13450;49.374;8.584;2023-04-27T10:35:34;100703.63;;;19.47;40.17
25560;BME280;13450;49.374;8.584;2023-04-27T10:38:17;100711.06;;;20.05;38.60
25560;BME280;13450;49.374;8.584;2023-04-27T10:40:44;100699.22;;;20.11;38.40
25560;BME280;13450;49.374;8.584;2023-04-27T10:43:11;100703.63;;;19.59;38.81
25560;BME280;13450;49.374;8.584;2023-04-27T10:45:37;100713.56;;;19.41;38.42
25560;BME280;13450;49.374;8.584;2023-04-27T10:48:04;100709.28;;;19.98;38.74
25560;BME280;13450;49.374;8.584;2023-04-27T10:50:29;100710.00;;;19.94;37.61
25560;BME280;13450;49.374;8.584;2023-04-27T10:53:02;100703.09;;;20.44;38.27
25560;BME280;13450;49.374;8.584;2023-04-27T10:55:30;100700.31;;;21.08;36.14
25560;BME280;13450;49.374;8.584;2023-04-27T10:57:56;100704.06;;;21.24;35.83
25560;BME280;13450;49.374;8.584;2023-04-27T11:00:37;100694.09;;;21.52;36.28
25560;BME280;13450;49.374;8.584;2023-04-27T11:03:17;100701.34;;;22.41;34.53
25560;BME280;13450;49.374;8.584;2023-04-27T11:05:45;100689.31;;;23.50;32.53
25560;BME280;13450;49.374;8.584;2023-04-27T11:08:13;100688.44;;;24.76;33.54
25560;BME280;13450;49.374;8.584;2023-04-27T11:10:42;100687.22;;;25.40;28.38
25560;BME280;13450;49.374;8.584;2023-04-27T11:13:13;100682.88;;;26.69;28.54
25560;BME280;13450;49.374;8.584;2023-04-27T11:15:52;100683.91;;;27.08;26.07
25560;BME280;13450;49.374;8.584;2023-04-27T11:18:23;100682.16;;;26.88;25.99
25560;BME280;13450;49.374;8.584;2023-04-27T11:20:53;100691.94;;;27.92;25.07
25560;BME280;13450;49.374;8.584;2023-04-27T11:25:51;100682.06;;;29.52;22.83
25560;BME280;13450;49.374;8.584;2023-04-27T11:28:18;100679.13;;;28.73;23.38
25560;BME280;13450;49.374;8.584;2023-04-27T11:30:44;100682.16;;;29.05;22.80
25560;BME280;13450;49.374;8.584;2023-04-27T11:33:09;100677.31;;;29.81;22.01
25560;BME280;13450;49.374;8.584;2023-04-27T11:35:37;100670.25;;;30.57;21.33
25560;BME280;13450;49.374;8.584;2023-04-27T11:38:03;100659.00;;;31.17;20.93
25560;BME280;13450;49.374;8.584;2023-04-27T11:40:29;100670.28;;;30.89;21.38
25560;BME280;13450;49.374;8.584;2023-04-27T11:42:58;100669.25;;;31.92;20.34
25560;BME280;13450;49.374;8.584;2023-04-27T11:45:25;100666.84;;;33.43;18.82
25560;BME280;13450;49.374;8.584;2023-04-27T11:47:53;100670.59;;;32.69;19.57
25560;BME280;13450;49.374;8.584;2023-04-27T11:50:18;100667.47;;;31.21;20.35
25560;BME280;13450;49.374;8.584;2023-04-27T11:52:49;100661.25;;;31.06;19.83
25560;BME280;13450;49.374;8.584;2023-04-27T11:55:19;100659.09;;;30.94;20.21
25560;BME280;13450;49.374;8.584;2023-04-27T11:57:47;100658.50;;;30.74;18.84
25560;BME280;13450;49.374;8.584;2023-04-27T12:00:13;100656.47;;;29.23;20.25
25560;BME280;13450;49.374;8.584;2023-04-27T12:02:40;100649.69;;;29.44;20.28
25560;BME280;13450;49.374;8.584;2023-04-27T12:05:06;100644.81;;;32.12;18.92
25560;BME280;13450;49.374;8.584;2023-04-27T12:07:32;100642.34;;;32.46;19.06
25560;BME280;13450;49.374;8.584;2023-04-27T12:09:58;100645.09;;;30.90;20.16
25560;BME280;13450;49.374;8.584;2023-04-27T12:12:23;100632.59;;;32.31;19.04
25560;BME280;13450;49.374;8.584;2023-04-27T12:14:50;100638.88;;;30.76;20.52
25560;BME280;13450;49.374;8.584;2023-04-27T12:17:16;100633.09;;;30.95;20.23
25560;BME280;13450;49.374;8.584;2023-04-27T12:19:42;100634.25;;;31.03;19.69
25560;BME280;13450;49.374;8.584;2023-04-27T12:22:07;100629.44;;;30.45;20.42
25560;BME280;13450;49.374;8.584;2023-04-27T12:24:33;100623.13;;;30.22;20.57
25560;BME280;13450;49.374;8.584;2023-04-27T12:26:59;100622.69;;;30.83;20.46
25560;BME280;13450;49.374;8.584;2023-04-27T12:29:28;100619.75;;;29.79;20.18
25560;BME280;13450;49.374;8.584;2023-04-27T12:31:53;100625.84;;;28.02;21.11
25560;BME280;13450;49.374;8.584;2023-04-27T12:34:19;100618.63;;;27.87;22.00
25560;BME280;13450;49.374;8.584;2023-04-27T12:36:48;100610.84;;;27.75;22.87
25560;BME280;13450;49.374;8.584;2023-04-27T12:39:16;100611.13;;;28.59;22.26
25560;BME280;13450;49.374;8.584;2023-04-27T12:41:45;100610.72;;;28.52;22.76
25560;BME280;13450;49.374;8.584;2023-04-27T12:44:12;100606.50;;;29.02;22.67
25560;BME280;13450;49.374;8.584;2023-04-27T12:46:39;100606.28;;;28.98;22.99
25560;BME280;13450;49.374;8.584;2023-04-27T12:49:04;100604.41;;;28.18;23.41
25560;BME280;13450;49.374;8.584;2023-04-27T12:51:30;100599.84;;;27.75;22.93
25560;BME280;13450;49.374;8.584;2023-04-27T12:53:57;100610.44;;;27.44;23.74
25560;BME280;13450;49.374;8.584;2023-04-27T12:56:22;100605.44;;;27.26;23.44
25560;BME280;13450;49.374;8.584;2023-04-27T12:58:48;100594.03;;;27.58;24.05
25560;BME280;13450;49.374;8.584;2023-04-27T13:01:13;100595.91;;;28.15;24.17
25560;BME280;13450;49.374;8.584;2023-04-27T13:03:42;100595.66;;;27.39;22.04
25560;BME280;13450;49.374;8.584;2023-04-27T13:06:08;100605.09;;;28.10;21.65
25560;BME280;13450;49.374;8.584;2023-04-27T13:08:34;100600.75;;;28.56;21.31
25560;BME280;13450;49.374;8.584;2023-04-27T13:11:00;100596.06;;;28.85;21.28
25560;BME280;13450;49.374;8.584;2023-04-27T13:13:25;100593.81;;;28.59;21.71
25560;BME280;13450;49.374;8.584;2023-04-27T13:15:53;100592.75;;;29.53;21.92
25560;BME280;13450;49.374;8.584;2023-04-27T13:18:18;100586.34;;;29.44;21.11
25560;BME280;13450;49.374;8.584;2023-04-27T13:20:44;100585.59;;;28.26;22.40
25560;BME280;13450;49.374;8.584;2023-04-27T13:23:09;100582.72;;;29.06;22.08